Time;durP1;ratioP1;P1;durP2;ratioP2;P2;SDS_P1;SDS_P2;PMS_P1;PMS_P2;Temp;Humidity;BMP_temperature;BMP_pressure;BME280_temperature;BME280_humidity;BME280_pressure;Samples;Min_cycle;Max_cycle;Signal;HPM_P1;HPM_P2
2022/02/10 00:06:49;;;;;;;7.72;3.50;;;;;;;10.09;77.83;100860.42;2775584;85;21063;-75
2022/02/10 00:36:16;;;;;;;5.60;4.60;;;;;;;10.05;77.98;100864.26;2822399;84;21129;-76
2022/02/10 00:40:20;;;;;;;4.83;3.62;;;;;;;10.06;77.90;100865.09;2820875;84;21085;-78
2022/02/10 00:44:23;;;;;;;5.83;3.47;;;;;;;10.07;77.92;100871.64;2818152;84;21053;-78
2022/02/10 00:48:25;;;;;;;6.45;4.62;;;;;;;10.08;78.03;100876.46;2811221;83;21061;-79
2022/02/10 00:52:26;;;;;;;4.65;3.42;;;;;;;10.10;78.03;100876.73;2801030;85;21550;-79
2022/02/10 00:56:28;;;;;;;7.28;4.95;;;;;;;10.06;78.05;100871.27;2800978;83;21040;-78
2022/02/10 01:30:20;;;;;;;8.15;4.33;;;;;;;10.05;77.69;100850.10;2832550;83;21117;-70
2022/02/10 01:34:22;;;;;;;5.22;4.37;;;;;;;10.03;77.75;100845.38;2833860;82;21123;-79
2022/02/10 01:38:24;;;;;;;4.20;3.80;;;;;;;10.02;77.78;100843.68;2834515;84;21041;-78
2022/02/10 02:03:43;;;;;;;5.28;3.08;;;;;;;9.96;77.73;100810.41;2815575;84;21062;-79
2022/02/10 02:07:45;;;;;;;3.70;3.40;;;;;;;9.94;77.65;100813.66;2782169;85;21018;-78
2022/02/10 02:11:52;;;;;;;3.33;3.02;;;;;;;9.94;77.96;100808.34;2815904;84;21063;-78
2022/02/10 02:15:54;;;;;;;3.50;2.92;;;;;;;9.91;78.04;100802.75;2782542;85;21077;-77
2022/02/10 02:19:55;;;;;;;4.33;3.42;;;;;;;9.91;78.02;100800.59;2815629;83;21014;-76
2022/02/10 02:23:57;;;;;;;8.18;4.12;;;;;;;9.91;77.94;100793.45;2766467;86;21034;-78
2022/02/10 02:27:59;;;;;;;3.65;2.20;;;;;;;9.96;77.79;100793.13;2812338;83;21548;-79
2022/02/10 02:32:13;;;;;;;3.83;2.62;;;;;;;9.98;77.48;100792.08;2781360;85;21045;-79
2022/02/10 03:04:00;;;;;;;4.03;3.62;;;;;;;10.10;77.10;100787.69;2781654;84;21365;-79
2022/02/10 03:05:55;;;;;;;5.90;3.87;;;;;;;10.13;76.32;100777.33;2829349;84;21476;-78
2022/02/10 03:10:04;;;;;;;3.47;2.83;;;;;;;10.12;75.87;100780.45;2780353;85;21050;-79
2022/02/10 03:13:57;;;;;;;2.72;2.52;;;;;;;10.15;75.99;100781.55;2825627;84;21685;-79
2022/02/10 04:13:10;;;;;;;5.03;3.80;;;;;;;10.41;74.73;100753.55;2816743;84;20999;-79
2022/02/10 05:37:20;;;;;;;5.90;5.03;;;;;;;10.11;75.26;100699.00;2810493;83;20978;-78
2022/02/10 05:45:32;;;;;;;6.33;5.08;;;;;;;10.09;74.84;100696.94;2810384;84;21041;-76
2022/02/10 05:57:53;;;;;;;8.70;4.83;;;;;;;10.15;74.50;100698.30;2810746;84;21346;-76
2022/02/10 07:10:04;;;;;;;9.35;6.15;;;;;;;9.67;73.48;100664.07;2810759;84;20963;-79
2022/02/10 07:14:10;;;;;;;6.17;5.25;;;;;;;9.73;73.83;100652.16;2807610;84;21041;-79
2022/02/10 07:44:27;;;;;;;10.13;7.60;;;;;;;10.12;72.37;100627.59;2820969;84;21586;-76
2022/02/10 09:04:19;;;;;;;20.40;10.45;;;;;;;10.62;74.52;100576.05;2824124;83;21023;-78
2022/02/10 10:03:21;;;;;;;16.27;10.70;;;;;;;12.63;70.16;100479.78;2790862;84;21427;-79
2022/02/10 10:11:52;;;;;;;17.87;9.90;;;;;;;13.14;69.74;100468.60;2817465;82;21547;-70
2022/02/10 10:54:12;;;;;;;8.95;6.45;;;;;;;14.18;62.08;100387.44;2818358;82;21053;-71
2022/02/10 10:58:10;;;;;;;7.92;4.85;;;;;;;14.27;61.93;100371.82;2829841;83;21029;-77
2022/02/10 12:37:01;;;;;;;3.43;1.83;;;;;;;16.52;57.07;100184.72;2916524;81;21042;-78
2022/02/10 14:19:59;;;;;;;4.37;3.08;;;;;;;14.37;58.99;100118.91;2960689;80;21042;-71
2022/02/10 14:28:03;;;;;;;4.95;3.10;;;;;;;14.27;58.39;100129.22;2888536;81;21092;-73
2022/02/10 14:32:09;;;;;;;6.33;3.15;;;;;;;14.23;59.13;100139.03;2899459;81;21014;-73
2022/02/10 14:36:21;;;;;;;3.83;2.85;;;;;;;14.21;60.74;100140.51;2911794;81;21346;-71
2022/02/10 16:17:24;;;;;;;10.32;7.15;;;;;;;12.12;66.03;100169.88;2970536;78;21540;-72
2022/02/10 16:21:32;;;;;;;10.65;6.17;;;;;;;12.10;65.83;100174.51;2971458;79;20960;-71
2022/02/10 16:25:33;;;;;;;8.50;6.50;;;;;;;12.11;66.52;100170.86;2970048;80;21042;-70
2022/02/10 16:29:36;;;;;;;6.35;5.72;;;;;;;12.10;65.99;100181.17;2969927;80;21010;-70
2022/02/10 16:33:42;;;;;;;13.98;7.10;;;;;;;12.08;65.68;100180.95;2970252;80;21007;-71
2022/02/10 16:37:46;;;;;;;10.43;6.87;;;;;;;11.86;66.11;100197.50;2970005;80;21043;-70
2022/02/10 16:41:47;;;;;;;12.45;5.75;;;;;;;11.71;65.79;100197.05;2970077;80;21042;-70
2022/02/10 16:45:49;;;;;;;10.78;6.45;;;;;;;11.70;67.01;100216.20;2970517;80;20979;-71
2022/02/10 16:49:53;;;;;;;16.80;7.00;;;;;;;11.62;67.78;100219.19;2969957;80;21007;-69
2022/02/10 16:54:03;;;;;;;11.30;6.95;;;;;;;11.38;68.60;100222.52;2971125;79;21050;-70
2022/02/10 17:52:22;;;;;;;11.95;9.50;;;;;;;10.35;74.56;100275.86;2918024;80;21051;-71
2022/02/10 17:56:26;;;;;;;31.95;23.18;;;;;;;10.34;74.54;100259.05;2917419;81;21076;-71
2022/02/10 18:00:28;;;;;;;19.17;10.00;;;;;;;10.40;74.35;100255.91;2917668;80;21018;-73
2022/02/10 18:04:30;;;;;;;17.75;10.78;;;;;;;10.28;74.21;100237.78;2917766;80;20983;-70
2022/02/10 18:08:39;;;;;;;14.83;11.53;;;;;;;10.25;74.69;100265.13;2917555;81;21022;-72
2022/02/10 18:17:06;;;;;;;18.62;10.40;;;;;;;10.09;75.18;100284.09;2918188;80;21055;-71
2022/02/10 18:21:09;;;;;;;;;;;;;;;10.07;75.16;100267.44;2917572;81;21335;-72
2022/02/10 19:07:20;;;;;;;20.50;10.53;;;;;;;9.28;79.70;100328.36;2926832;81;21714;-71
2022/02/10 19:11:20;;;;;;;19.27;11.40;;;;;;;9.21;80.19;100348.34;2927767;80;21043;-71
2022/02/10 19:15:33;;;;;;;19.57;11.83;;;;;;;9.13;80.36;100348.09;2936506;80;21031;-70
2022/02/10 19:19:28;;;;;;;18.32;13.78;;;;;;;9.03;80.99;100349.27;2976129;79;21038;-69
2022/02/10 19:23:29;;;;;;;17.27;13.72;;;;;;;8.95;81.45;100360.94;2976119;80;20999;-71
2022/02/10 19:27:31;;;;;;;24.18;16.20;;;;;;;9.01;81.74;100352.51;2976060;79;21262;-70
2022/02/10 19:31:36;;;;;;;23.05;14.65;;;;;;;9.06;81.94;100349.52;2976068;79;21026;-70
2022/02/10 19:35:43;;;;;;;17.67;12.10;;;;;;;9.14;81.62;100341.36;2975497;79;21003;-71
2022/02/10 19:39:43;;;;;;;20.55;14.38;;;;;;;9.27;81.39;100347.05;2974930;79;21030;-71
2022/02/10 19:43:44;;;;;;;20.48;15.98;;;;;;;9.34;80.91;100368.20;2975691;79;21019;-70
2022/02/10 19:47:46;;;;;;;17.95;12.43;;;;;;;9.37;80.69;100366.64;2937014;80;20979;-71
2022/02/10 19:51:48;;;;;;;25.05;13.78;;;;;;;9.41;80.76;100373.41;2928087;81;21042;-70
2022/02/10 19:55:52;;;;;;;16.77;12.60;;;;;;;9.48;80.42;100379.10;2871886;83;21014;-70
2022/02/10 19:59:56;;;;;;;19.20;12.78;;;;;;;9.55;80.08;100382.14;2839934;83;21087;-70
2022/02/10 20:04:00;;;;;;;21.45;13.72;;;;;;;9.60;80.02;100379.97;2846257;83;21051;-70
2022/02/10 20:08:00;;;;;;;17.62;12.93;;;;;;;9.56;80.19;100388.64;2844564;83;21051;-70
2022/02/10 20:12:03;;;;;;;20.97;13.58;;;;;;;9.45;80.39;100389.09;2845835;83;20972;-71
2022/02/10 20:16:08;;;;;;;17.98;13.08;;;;;;;9.40;80.66;100388.11;2863629;82;21019;-71
2022/02/10 20:20:10;;;;;;;15.80;11.85;;;;;;;9.38;80.78;100379.42;2893797;82;21063;-71
2022/02/10 20:24:12;;;;;;;22.32;12.43;;;;;;;9.35;81.23;100403.55;2893060;82;20999;-72
2022/02/10 20:28:13;;;;;;;20.85;13.45;;;;;;;9.28;81.79;100399.17;2896502;82;20976;-72
2022/02/10 20:32:15;;;;;;;21.42;13.62;;;;;;;9.25;82.45;100396.28;2896523;82;21040;-71
2022/02/10 20:36:17;;;;;;;18.55;12.98;;;;;;;9.17;83.27;100406.61;2896875;82;20980;-71
2022/02/10 20:40:19;;;;;;;20.97;15.25;;;;;;;9.06;84.27;100397.28;2914059;81;21029;-72
2022/02/10 20:44:21;;;;;;;19.52;13.45;;;;;;;9.06;84.72;100401.27;2914275;81;20998;-71
2022/02/10 20:48:24;;;;;;;30.82;15.23;;;;;;;9.02;85.08;100413.91;2914075;81;20975;-71
2022/02/10 20:52:28;;;;;;;21.97;15.83;;;;;;;9.01;85.60;100418.84;2914018;81;21042;-72
2022/02/10 20:56:29;;;;;;;24.70;15.83;;;;;;;8.79;86.82;100426.18;2913681;81;20990;-71
2022/02/10 21:00:32;;;;;;;25.85;17.48;;;;;;;8.74;87.59;100410.59;2914469;81;21026;-71
2022/02/10 21:04:39;;;;;;;17.40;14.63;;;;;;;8.69;88.07;100429.97;2883372;82;20980;-70
2022/02/10 21:08:53;;;;;;;19.15;15.00;;;;;;;8.68;88.55;100426.48;2914473;81;21062;-71
2022/02/10 21:12:47;;;;;;;19.95;13.70;;;;;;;8.67;89.20;100440.70;2881905;82;21029;-71
2022/02/10 21:16:49;;;;;;;19.00;11.10;;;;;;;8.53;90.35;100450.95;2914837;81;21025;-71
2022/02/10 21:20:57;;;;;;;8.75;6.47;;;;;;;8.43;90.58;100457.34;2883424;82;21573;-70
2022/02/10 21:25:02;;;;;;;6.22;4.62;;;;;;;8.35;89.17;100471.63;2882374;82;21004;-71
2022/02/10 21:29:01;;;;;;;8.53;6.20;;;;;;;8.33;89.71;100473.53;2881961;82;21020;-70
2022/02/10 21:33:04;;;;;;;12.93;5.17;;;;;;;8.18;92.47;100477.24;2866866;82;20999;-71
2022/02/10 21:37:09;;;;;;;11.83;5.53;;;;;;;8.02;91.84;100482.26;2831839;84;21043;-71
2022/02/10 22:11:13;;;;;;;4.35;3.85;;;;;;;8.49;90.02;100490.53;2840408;84;21008;-72
2022/02/10 22:19:23;;;;;;;4.80;4.30;;;;;;;8.42;89.98;100497.23;2833985;82;21134;-71
2022/02/10 22:23:26;;;;;;;5.22;3.30;;;;;;;8.34;90.16;100501.73;2841616;84;21075;-70
2022/02/10 22:27:30;;;;;;;3.77;3.47;;;;;;;8.16;89.21;100498.56;2860910;82;21020;-71
2022/02/10 22:35:36;;;;;;;4.65;4.08;;;;;;;8.26;87.46;100493.48;2890806;82;21533;-71
2022/02/10 22:39:43;;;;;;;9.88;5.05;;;;;;;8.22;87.33;100485.34;2896822;82;20995;-70
2022/02/10 22:43:46;;;;;;;7.53;4.72;;;;;;;8.19;87.37;100485.09;2896591;82;21023;-70
2022/02/10 22:47:48;;;;;;;6.55;5.35;;;;;;;8.21;86.91;100481.86;2896428;82;21086;-71
2022/02/10 22:51:50;;;;;;;4.17;3.77;;;;;;;8.24;86.71;100486.08;2896237;82;21099;-71
2022/02/10 22:55:52;;;;;;;6.05;3.75;;;;;;;8.20;86.65;100488.58;2896399;82;21571;-70
2022/02/10 22:59:58;;;;;;;5.67;5.15;;;;;;;8.19;87.06;100496.16;2880142;82;21008;-70
2022/02/10 23:03:59;;;;;;;6.53;4.35;;;;;;;8.11;87.37;100501.98;2848051;81;20991;-71
2022/02/10 23:08:01;;;;;;;13.03;6.55;;;;;;;8.04;87.40;100502.88;2887027;81;21048;-70
2022/02/10 23:12:02;;;;;;;10.68;8.58;;;;;;;8.07;87.11;100499.17;2930303;81;21067;-70
2022/02/10 23:16:07;;;;;;;9.90;7.60;;;;;;;8.07;86.84;100505.34;2930618;81;21076;-71
2022/02/10 23:20:12;;;;;;;4.85;3.52;;;;;;;8.10;86.52;100495.85;2930641;81;21025;-71
2022/02/10 23:24:13;;;;;;;3.70;2.42;;;;;;;8.15;86.47;100487.10;2930637;81;20965;-71
2022/02/10 23:28:25;;;;;;;3.67;2.80;;;;;;;8.26;85.98;100486.85;2930850;81;21004;-71
2022/02/10 23:32:27;;;;;;;4.75;3.05;;;;;;;8.38;85.67;100483.83;2930578;81;21032;-71
2022/02/10 23:36:46;;;;;;;6.15;4.12;;;;;;;8.43;85.09;100501.08;2931103;81;21001;-71
2022/02/10 23:45:09;;;;;;;5.47;3.58;;;;;;;8.61;85.02;100503.44;2930335;81;21049;-71
2022/02/10 23:49:02;;;;;;;3.27;2.98;;;;;;;8.71;84.59;100505.83;2927843;81;21024;-70
2022/02/10 23:53:04;;;;;;;6.05;4.20;;;;;;;8.73;84.30;100499.07;2930625;81;21056;-70
2022/02/10 23:57:13;;;;;;;4.92;2.87;;;;;;;8.75;83.91;100500.30;2930372;81;21087;-71
